Airfield :
LOGIN :

Register | Disclaimer

   EN    FR    IT 

 










Legend :    VFR   Marginal VFR   IFR   Intensive IFR   Very Intensive IFR
Visi :
Ceiling :
>= 8 km
>= 3000ft
5 to 8 km
1000 to 3000 ft
1500m to 5 km
500 to 1000 ft
800 to 1500m
200 to 500 ft
< 800m
< 200 ft
Symbols :   Thunderstorms  Fog  Heavy snow  Heavy precipitations  Wind > 20 kt
SIGMETs :     Misc.  Thunderstorms  Icing  Turbulence  Mountain Waves  Volcanic Ashes






- Airport Elevation : 20 ft
- IATA code : OIZ


DTTB - Sidi Ahmed Air Base

CURRENT METAR :
  • 161200Z 12007KT 070V150 CAVOK 18/09 Q1016

EXPIRED METARs :
  • 161100Z 13007KT 110V170 CAVOK 17/10 Q1017
  • 161000Z 13007KT 110V170 CAVOK 15/10 Q1017

TAF TAF DTTB
Valid from the 16 at 13:00 until the 16 at 22:00 UTC


161200Z 1613/1622 12010KT CAVOK
PROB40
TEMPO 1615/1619 17015G25KT



MET'MAP, your aeronautical weather chart ! - Copyright ORBIFLY December 2007 - Disclaimer

ORBIFLY MET'MAP TEAM :

Programming & Development : Alexandra Zaïnal
Concept & original design : Baudouin d'Aumeries
Assistance for programming : Marc-Olivier Méhu
Technical & hardware support : Manuel Goepfert

Contact : metmap@orbifly.com




SOURCES & CREDITS :

   NOAA